sensor_id;sensor_type;location;lat;lon;timestamp;P1;durP1;ratioP1;P2;durP2;ratioP2
32146;SDS011;32190;49.112;8.598;2022-10-31T00:02:37;4.30;;;1.15;;
32146;SDS011;32190;49.112;8.598;2022-10-31T00:08:28;1.27;;;0.88;;
32146;SDS011;32190;49.112;8.598;2022-10-31T00:14:19;2.70;;;1.10;;
32146;SDS011;32190;49.112;8.598;2022-10-31T00:20:09;1.33;;;0.95;;
32146;SDS011;32190;49.112;8.598;2022-10-31T00:26:03;1.92;;;1.15;;
32146;SDS011;32190;49.112;8.598;2022-10-31T00:31:54;2.33;;;1.35;;
32146;SDS011;32190;49.112;8.598;2022-10-31T00:37:45;2.25;;;0.90;;
32146;SDS011;32190;49.112;8.598;2022-10-31T00:43:35;1.23;;;1.13;;
32146;SDS011;32190;49.112;8.598;2022-10-31T00:49:26;0.98;;;0.93;;
32146;SDS011;32190;49.112;8.598;2022-10-31T00:55:17;4.80;;;1.13;;
32146;SDS011;32190;49.112;8.598;2022-10-31T01:01:07;5.80;;;1.10;;
32146;SDS011;32190;49.112;8.598;2022-10-31T01:07:00;1.25;;;0.95;;
32146;SDS011;32190;49.112;8.598;2022-10-31T01:12:51;2.05;;;1.05;;
32146;SDS011;32190;49.112;8.598;2022-10-31T01:18:42;1.23;;;1.08;;
32146;SDS011;32190;49.112;8.598;2022-10-31T01:24:32;1.27;;;1.00;;
32146;SDS011;32190;49.112;8.598;2022-10-31T01:30:23;1.10;;;1.00;;
32146;SDS011;32190;49.112;8.598;2022-10-31T01:36:18;1.25;;;1.05;;
32146;SDS011;32190;49.112;8.598;2022-10-31T01:42:12;0.90;;;0.90;;
32146;SDS011;32190;49.112;8.598;2022-10-31T01:48:11;0.90;;;0.90;;
32146;SDS011;32190;49.112;8.598;2022-10-31T01:54:06;1.40;;;0.73;;
32146;SDS011;32190;49.112;8.598;2022-10-31T02:00:00;0.80;;;0.80;;
32146;SDS011;32190;49.112;8.598;2022-10-31T02:05:54;1.15;;;1.00;;
32146;SDS011;32190;49.112;8.598;2022-10-31T02:11:46;2.38;;;0.82;;
32146;SDS011;32190;49.112;8.598;2022-10-31T02:17:37;2.20;;;1.10;;
32146;SDS011;32190;49.112;8.598;2022-10-31T02:47:48;1.83;;;1.00;;
32146;SDS011;32190;49.112;8.598;2022-10-31T02:53:42;1.70;;;0.85;;
32146;SDS011;32190;49.112;8.598;2022-10-31T02:59:33;2.03;;;0.90;;
32146;SDS011;32190;49.112;8.598;2022-10-31T03:05:31;1.83;;;0.70;;
32146;SDS011;32190;49.112;8.598;2022-10-31T03:11:46;1.38;;;0.90;;
32146;SDS011;32190;49.112;8.598;2022-10-31T03:17:52;2.38;;;1.17;;
32146;SDS011;32190;49.112;8.598;2022-10-31T03:23:53;2.35;;;0.80;;
32146;SDS011;32190;49.112;8.598;2022-10-31T03:29:46;0.73;;;0.73;;
32146;SDS011;32190;49.112;8.598;2022-10-31T03:35:39;4.53;;;1.10;;
32146;SDS011;32190;49.112;8.598;2022-10-31T03:41:37;1.30;;;0.93;;
32146;SDS011;32190;49.112;8.598;2022-10-31T03:47:31;0.98;;;0.70;;
32146;SDS011;32190;49.112;8.598;2022-10-31T03:53:30;1.38;;;0.75;;
32146;SDS011;32190;49.112;8.598;2022-10-31T03:59:35;0.77;;;0.77;;
32146;SDS011;32190;49.112;8.598;2022-10-31T04:05:29;1.02;;;0.93;;
32146;SDS011;32190;49.112;8.598;2022-10-31T04:11:21;1.30;;;0.75;;
32146;SDS011;32190;49.112;8.598;2022-10-31T04:17:18;1.20;;;0.85;;
32146;SDS011;32190;49.112;8.598;2022-10-31T04:23:17;0.90;;;0.90;;
32146;SDS011;32190;49.112;8.598;2022-10-31T04:29:14;1.00;;;0.90;;
32146;SDS011;32190;49.112;8.598;2022-10-31T04:35:05;2.47;;;1.35;;
32146;SDS011;32190;49.112;8.598;2022-10-31T04:40:56;7.03;;;1.10;;
32146;SDS011;32190;49.112;8.598;2022-10-31T04:46:46;1.95;;;1.02;;
32146;SDS011;32190;49.112;8.598;2022-10-31T04:52:40;4.07;;;1.27;;
32146;SDS011;32190;49.112;8.598;2022-10-31T04:58:32;3.17;;;0.80;;
32146;SDS011;32190;49.112;8.598;2022-10-31T05:04:23;1.08;;;0.98;;
32146;SDS011;32190;49.112;8.598;2022-10-31T05:10:15;1.05;;;0.85;;
32146;SDS011;32190;49.112;8.598;2022-10-31T05:16:07;2.45;;;1.05;;
32146;SDS011;32190;49.112;8.598;2022-10-31T05:21:57;1.30;;;1.20;;
32146;SDS011;32190;49.112;8.598;2022-10-31T05:27:48;1.40;;;1.30;;
32146;SDS011;32190;49.112;8.598;2022-10-31T05:33:40;0.90;;;0.90;;
32146;SDS011;32190;49.112;8.598;2022-10-31T05:39:31;3.13;;;0.88;;
32146;SDS011;32190;49.112;8.598;2022-10-31T05:45:22;1.60;;;1.00;;
32146;SDS011;32190;49.112;8.598;2022-10-31T05:51:13;2.50;;;1.25;;
32146;SDS011;32190;49.112;8.598;2022-10-31T05:57:03;0.80;;;0.80;;
32146;SDS011;32190;49.112;8.598;2022-10-31T06:02:57;0.75;;;0.75;;
32146;SDS011;32190;49.112;8.598;2022-10-31T06:08:49;1.27;;;1.17;;
32146;SDS011;32190;49.112;8.598;2022-10-31T06:14:39;1.08;;;1.05;;
32146;SDS011;32190;49.112;8.598;2022-10-31T06:20:30;1.02;;;0.93;;
32146;SDS011;32190;49.112;8.598;2022-10-31T06:26:21;0.90;;;0.90;;
32146;SDS011;32190;49.112;8.598;2022-10-31T06:32:12;0.80;;;0.80;;
32146;SDS011;32190;49.112;8.598;2022-10-31T06:38:02;1.60;;;1.00;;
32146;SDS011;32190;49.112;8.598;2022-10-31T06:43:53;1.15;;;1.05;;
32146;SDS011;32190;49.112;8.598;2022-10-31T06:49:43;1.33;;;1.10;;
32146;SDS011;32190;49.112;8.598;2022-10-31T06:55:34;2.45;;;1.02;;
32146;SDS011;32190;49.112;8.598;2022-10-31T07:01:25;4.05;;;0.75;;
32146;SDS011;32190;49.112;8.598;2022-10-31T07:07:16;0.70;;;0.70;;
32146;SDS011;32190;49.112;8.598;2022-10-31T07:13:09;0.95;;;0.95;;
32146;SDS011;32190;49.112;8.598;2022-10-31T07:19:01;0.80;;;0.80;;
32146;SDS011;32190;49.112;8.598;2022-10-31T07:24:52;1.08;;;0.75;;
32146;SDS011;32190;49.112;8.598;2022-10-31T07:30:42;0.75;;;0.60;;
32146;SDS011;32190;49.112;8.598;2022-10-31T07:36:33;5.55;;;1.25;;
32146;SDS011;32190;49.112;8.598;2022-10-31T07:42:23;1.58;;;0.93;;
32146;SDS011;32190;49.112;8.598;2022-10-31T07:48:14;0.95;;;0.95;;
32146;SDS011;32190;49.112;8.598;2022-10-31T07:54:04;1.42;;;1.30;;
32146;SDS011;32190;49.112;8.598;2022-10-31T07:59:55;0.77;;;0.77;;
32146;SDS011;32190;49.112;8.598;2022-10-31T08:05:45;1.92;;;1.58;;
32146;SDS011;32190;49.112;8.598;2022-10-31T08:11:36;1.60;;;1.25;;
32146;SDS011;32190;49.112;8.598;2022-10-31T08:17:27;3.53;;;1.30;;
32146;SDS011;32190;49.112;8.598;2022-10-31T08:23:17;1.17;;;1.08;;
32146;SDS011;32190;49.112;8.598;2022-10-31T08:29:08;1.33;;;1.23;;
32146;SDS011;32190;49.112;8.598;2022-10-31T08:34:58;1.27;;;1.17;;
32146;SDS011;32190;49.112;8.598;2022-10-31T08:40:49;1.58;;;1.35;;
32146;SDS011;32190;49.112;8.598;2022-10-31T08:46:40;1.13;;;1.08;;
32146;SDS011;32190;49.112;8.598;2022-10-31T08:52:30;1.27;;;1.17;;
32146;SDS011;32190;49.112;8.598;2022-10-31T08:58:21;1.20;;;1.10;;
32146;SDS011;32190;49.112;8.598;2022-10-31T09:04:12;2.63;;;1.70;;
32146;SDS011;32190;49.112;8.598;2022-10-31T09:10:03;2.38;;;1.20;;
32146;SDS011;32190;49.112;8.598;2022-10-31T09:15:55;1.38;;;1.20;;
32146;SDS011;32190;49.112;8.598;2022-10-31T09:21:46;1.42;;;1.33;;
32146;SDS011;32190;49.112;8.598;2022-10-31T09:27:37;1.95;;;1.05;;
32146;SDS011;32190;49.112;8.598;2022-10-31T09:33:27;3.50;;;1.52;;
32146;SDS011;32190;49.112;8.598;2022-10-31T09:39:18;2.67;;;1.13;;
32146;SDS011;32190;49.112;8.598;2022-10-31T09:45:17;3.60;;;1.17;;
32146;SDS011;32190;49.112;8.598;2022-10-31T09:52:17;1.23;;;1.13;;
32146;SDS011;32190;49.112;8.598;2022-10-31T09:57:47;1.33;;;1.23;;
32146;SDS011;32190;49.112;8.598;2022-10-31T10:03:42;0.70;;;0.70;;
32146;SDS011;32190;49.112;8.598;2022-10-31T10:09:37;1.75;;;1.42;;
32146;SDS011;32190;49.112;8.598;2022-10-31T10:21:51;1.95;;;1.60;;
32146;SDS011;32190;49.112;8.598;2022-10-31T10:34:27;1.85;;;1.00;;
32146;SDS011;32190;49.112;8.598;2022-10-31T10:40:24;4.28;;;1.67;;
32146;SDS011;32190;49.112;8.598;2022-10-31T10:53:13;1.60;;;1.50;;
32146;SDS011;32190;49.112;8.598;2022-10-31T10:59:25;1.33;;;1.23;;
32146;SDS011;32190;49.112;8.598;2022-10-31T11:12:36;1.30;;;1.20;;
32146;SDS011;32190;49.112;8.598;2022-10-31T11:18:29;2.20;;;1.58;;
32146;SDS011;32190;49.112;8.598;2022-10-31T11:30:59;2.13;;;1.23;;
32146;SDS011;32190;49.112;8.598;2022-10-31T11:37:14;2.20;;;2.00;;
32146;SDS011;32190;49.112;8.598;2022-10-31T11:43:15;3.28;;;1.70;;
32146;SDS011;32190;49.112;8.598;2022-10-31T11:49:50;1.17;;;1.10;;
32146;SDS011;32190;49.112;8.598;2022-10-31T11:55:32;1.10;;;1.00;;
32146;SDS011;32190;49.112;8.598;2022-10-31T12:01:26;3.25;;;1.70;;
32146;SDS011;32190;49.112;8.598;2022-10-31T12:07:18;2.22;;;1.80;;
32146;SDS011;32190;49.112;8.598;2022-10-31T12:13:29;1.42;;;1.33;;
32146;SDS011;32190;49.112;8.598;2022-10-31T12:38:08;2.55;;;2.30;;
32146;SDS011;32190;49.112;8.598;2022-10-31T12:56:22;1.23;;;1.13;;
32146;SDS011;32190;49.112;8.598;2022-10-31T13:08:39;2.45;;;1.33;;
32146;SDS011;32190;49.112;8.598;2022-10-31T13:14:39;2.03;;;1.85;;
32146;SDS011;32190;49.112;8.598;2022-10-31T13:20:42;3.42;;;1.48;;
32146;SDS011;32190;49.112;8.598;2022-10-31T13:32:51;1.58;;;1.23;;
32146;SDS011;32190;49.112;8.598;2022-10-31T13:44:42;2.03;;;1.90;;
32146;SDS011;32190;49.112;8.598;2022-10-31T13:50:33;2.45;;;2.25;;
32146;SDS011;32190;49.112;8.598;2022-10-31T13:56:30;4.55;;;2.80;;
32146;SDS011;32190;49.112;8.598;2022-10-31T14:02:26;1.93;;;1.80;;
32146;SDS011;32190;49.112;8.598;2022-10-31T14:08:22;2.33;;;1.65;;
32146;SDS011;32190;49.112;8.598;2022-10-31T14:14:17;2.17;;;1.85;;
32146;SDS011;32190;49.112;8.598;2022-10-31T14:20:49;2.10;;;1.55;;
32146;SDS011;32190;49.112;8.598;2022-10-31T14:26:39;1.60;;;1.40;;
32146;SDS011;32190;49.112;8.598;2022-10-31T14:32:47;1.55;;;1.10;;
32146;SDS011;32190;49.112;8.598;2022-10-31T14:44:56;1.33;;;1.23;;
32146;SDS011;32190;49.112;8.598;2022-10-31T14:51:17;2.13;;;1.85;;
32146;SDS011;32190;49.112;8.598;2022-10-31T15:09:00;1.55;;;1.45;;
32146;SDS011;32190;49.112;8.598;2022-10-31T15:14:50;1.83;;;1.50;;
32146;SDS011;32190;49.112;8.598;2022-10-31T15:20:42;0.85;;;0.85;;
32146;SDS011;32190;49.112;8.598;2022-10-31T15:26:37;1.33;;;1.23;;
32146;SDS011;32190;49.112;8.598;2022-10-31T15:32:30;1.15;;;1.15;;
32146;SDS011;32190;49.112;8.598;2022-10-31T15:38:22;0.90;;;0.90;;
32146;SDS011;32190;49.112;8.598;2022-10-31T15:44:19;1.42;;;1.33;;
32146;SDS011;32190;49.112;8.598;2022-10-31T15:50:20;1.45;;;1.25;;
32146;SDS011;32190;49.112;8.598;2022-10-31T15:56:31;2.05;;;1.80;;
32146;SDS011;32190;49.112;8.598;2022-10-31T16:02:23;2.20;;;1.27;;
32146;SDS011;32190;49.112;8.598;2022-10-31T16:14:24;1.37;;;1.20;;
32146;SDS011;32190;49.112;8.598;2022-10-31T16:26:16;1.92;;;1.27;;
32146;SDS011;32190;49.112;8.598;2022-10-31T16:32:24;2.72;;;1.50;;
32146;SDS011;32190;49.112;8.598;2022-10-31T16:38:16;1.15;;;1.05;;
32146;SDS011;32190;49.112;8.598;2022-10-31T16:44:13;2.08;;;1.88;;
32146;SDS011;32190;49.112;8.598;2022-10-31T16:50:19;2.03;;;1.58;;
32146;SDS011;32190;49.112;8.598;2022-10-31T16:56:20;1.70;;;1.23;;
32146;SDS011;32190;49.112;8.598;2022-10-31T17:02:16;4.05;;;1.70;;
32146;SDS011;32190;49.112;8.598;2022-10-31T17:08:07;1.63;;;1.35;;
32146;SDS011;32190;49.112;8.598;2022-10-31T17:13:58;4.07;;;1.77;;
32146;SDS011;32190;49.112;8.598;2022-10-31T17:19:48;1.85;;;1.40;;
32146;SDS011;32190;49.112;8.598;2022-10-31T17:25:39;1.85;;;1.75;;
32146;SDS011;32190;49.112;8.598;2022-10-31T17:31:31;2.00;;;1.60;;
32146;SDS011;32190;49.112;8.598;2022-10-31T17:37:23;1.50;;;1.40;;
32146;SDS011;32190;49.112;8.598;2022-10-31T17:43:13;1.50;;;1.40;;
32146;SDS011;32190;49.112;8.598;2022-10-31T17:49:04;2.10;;;1.80;;
32146;SDS011;32190;49.112;8.598;2022-10-31T17:54:57;2.00;;;1.80;;
32146;SDS011;32190;49.112;8.598;2022-10-31T18:00:48;1.90;;;1.75;;
32146;SDS011;32190;49.112;8.598;2022-10-31T18:06:44;1.70;;;1.50;;
32146;SDS011;32190;49.112;8.598;2022-10-31T18:12:38;1.90;;;1.70;;
32146;SDS011;32190;49.112;8.598;2022-10-31T18:18:29;5.55;;;2.10;;
32146;SDS011;32190;49.112;8.598;2022-10-31T18:24:20;2.05;;;1.70;;
32146;SDS011;32190;49.112;8.598;2022-10-31T18:30:10;1.73;;;1.55;;
32146;SDS011;32190;49.112;8.598;2022-10-31T18:36:04;2.08;;;1.88;;
32146;SDS011;32190;49.112;8.598;2022-10-31T18:42:03;2.45;;;1.55;;
32146;SDS011;32190;49.112;8.598;2022-10-31T18:47:53;2.97;;;2.65;;
32146;SDS011;32190;49.112;8.598;2022-10-31T18:53:51;1.70;;;1.45;;
32146;SDS011;32190;49.112;8.598;2022-10-31T18:59:43;2.38;;;2.15;;
32146;SDS011;32190;49.112;8.598;2022-10-31T19:05:33;2.80;;;2.17;;
32146;SDS011;32190;49.112;8.598;2022-10-31T19:11:24;1.55;;;1.45;;
32146;SDS011;32190;49.112;8.598;2022-10-31T19:17:15;2.67;;;1.98;;
32146;SDS011;32190;49.112;8.598;2022-10-31T19:23:06;1.58;;;1.48;;
32146;SDS011;32190;49.112;8.598;2022-10-31T19:28:56;1.83;;;1.70;;
32146;SDS011;32190;49.112;8.598;2022-10-31T19:34:47;2.33;;;1.40;;
32146;SDS011;32190;49.112;8.598;2022-10-31T19:40:38;2.70;;;1.77;;
32146;SDS011;32190;49.112;8.598;2022-10-31T19:46:28;2.00;;;1.80;;
32146;SDS011;32190;49.112;8.598;2022-10-31T19:52:19;2.90;;;2.22;;
32146;SDS011;32190;49.112;8.598;2022-10-31T19:58:09;3.55;;;2.60;;
32146;SDS011;32190;49.112;8.598;2022-10-31T20:04:00;2.63;;;2.38;;
32146;SDS011;32190;49.112;8.598;2022-10-31T20:09:51;2.15;;;1.95;;
32146;SDS011;32190;49.112;8.598;2022-10-31T20:15:42;2.70;;;2.00;;
32146;SDS011;32190;49.112;8.598;2022-10-31T20:21:34;2.50;;;2.08;;
32146;SDS011;32190;49.112;8.598;2022-10-31T20:27:27;3.63;;;2.25;;
32146;SDS011;32190;49.112;8.598;2022-10-31T20:33:17;3.25;;;1.90;;
32146;SDS011;32190;49.112;8.598;2022-10-31T20:39:08;4.70;;;2.40;;
32146;SDS011;32190;49.112;8.598;2022-10-31T20:44:59;2.05;;;1.88;;
32146;SDS011;32190;49.112;8.598;2022-10-31T20:50:54;2.50;;;1.40;;
32146;SDS011;32190;49.112;8.598;2022-10-31T20:56:48;2.97;;;2.67;;
32146;SDS011;32190;49.112;8.598;2022-10-31T21:02:39;2.63;;;2.15;;
32146;SDS011;32190;49.112;8.598;2022-10-31T21:08:31;2.38;;;1.70;;
32146;SDS011;32190;49.112;8.598;2022-10-31T21:14:22;2.00;;;1.90;;
32146;SDS011;32190;49.112;8.598;2022-10-31T21:20:13;1.75;;;1.65;;
32146;SDS011;32190;49.112;8.598;2022-10-31T21:26:04;2.80;;;1.92;;
32146;SDS011;32190;49.112;8.598;2022-10-31T21:32:16;1.92;;;1.80;;
32146;SDS011;32190;49.112;8.598;2022-10-31T21:38:08;2.17;;;1.83;;
32146;SDS011;32190;49.112;8.598;2022-10-31T21:43:58;2.13;;;1.63;;
32146;SDS011;32190;49.112;8.598;2022-10-31T21:49:49;2.58;;;2.38;;
32146;SDS011;32190;49.112;8.598;2022-10-31T21:55:40;3.50;;;2.33;;
32146;SDS011;32190;49.112;8.598;2022-10-31T22:01:30;3.67;;;2.10;;
32146;SDS011;32190;49.112;8.598;2022-10-31T22:07:21;2.22;;;2.03;;
32146;SDS011;32190;49.112;8.598;2022-10-31T22:13:12;2.13;;;2.00;;
32146;SDS011;32190;49.112;8.598;2022-10-31T22:19:03;1.70;;;1.48;;
32146;SDS011;32190;49.112;8.598;2022-10-31T22:24:55;2.28;;;1.85;;
32146;SDS011;32190;49.112;8.598;2022-10-31T22:30:46;4.03;;;2.05;;
32146;SDS011;32190;49.112;8.598;2022-10-31T22:36:37;3.75;;;2.35;;
32146;SDS011;32190;49.112;8.598;2022-10-31T22:42:28;2.03;;;1.83;;
32146;SDS011;32190;49.112;8.598;2022-10-31T22:48:18;2.00;;;1.90;;
32146;SDS011;32190;49.112;8.598;2022-10-31T22:54:13;1.88;;;1.40;;
32146;SDS011;32190;49.112;8.598;2022-10-31T23:00:05;1.63;;;1.23;;
32146;SDS011;32190;49.112;8.598;2022-10-31T23:05:58;1.58;;;1.48;;
32146;SDS011;32190;49.112;8.598;2022-10-31T23:11:50;3.20;;;1.83;;
32146;SDS011;32190;49.112;8.598;2022-10-31T23:17:40;2.47;;;1.73;;
32146;SDS011;32190;49.112;8.598;2022-10-31T23:23:35;2.45;;;1.73;;
32146;SDS011;32190;49.112;8.598;2022-10-31T23:29:26;2.08;;;1.90;;
32146;SDS011;32190;49.112;8.598;2022-10-31T23:35:17;3.38;;;1.77;;
32146;SDS011;32190;49.112;8.598;2022-10-31T23:41:08;3.13;;;1.85;;
32146;SDS011;32190;49.112;8.598;2022-10-31T23:46:58;1.90;;;1.70;;
32146;SDS011;32190;49.112;8.598;2022-10-31T23:52:49;1.92;;;1.50;;
32146;SDS011;32190;49.112;8.598;2022-10-31T23:58:40;2.80;;;1.77;;
